Time,TemperatureF,DewpointF,PressureIn,WindDirection,WindDirectionDegrees,WindSpeedMPH,WindSpeedGustMPH,Humidity,HourlyPrecipIn,Conditions,Clouds,dailyrainin,SoftwareType,DateUTC
2013-04-18 00:02:00,23.6,6.8,30.37,NNW,338,1.1,2.2,48,0.00,,,0.00,WUHU216HW,2013-04-18 08:02:00,
2013-04-18 00:07:00,23.6,6.8,30.37,NW,310,2.3,2.7,48,0.00,,,0.00,WUHU216HW,2013-04-18 08:07:00,
2013-04-18 00:12:00,23.4,6.6,30.37,NW,315,2.5,2.7,48,0.00,,,0.00,WUHU216HW,2013-04-18 08:12:00,
2013-04-18 00:17:00,23.4,6.6,30.37,North,352,1.9,2.5,48,0.00,,,0.00,WUHU216HW,2013-04-18 08:17:00,
2013-04-18 00:22:00,23.0,6.2,30.37,NW,315,1.8,2.5,48,0.00,,,0.00,WUHU216HW,2013-04-18 08:22:00,
2013-04-18 00:27:00,23.0,6.2,30.37,NNW,331,2.9,4.0,48,0.00,,,0.00,WUHU216HW,2013-04-18 08:27:00,
2013-04-18 00:32:00,22.7,5.9,30.37,NNW,338,1.3,4.0,48,0.00,,,0.00,WUHU216HW,2013-04-18 08:32:00,
2013-04-18 00:37:00,22.5,6.2,30.36,WNW,284,2.0,2.7,49,0.00,,,0.00,WUHU216HW,2013-04-18 08:37:00,
2013-04-18 00:42:00,22.3,6.0,30.37,NW,315,1.8,2.7,49,0.00,,,0.00,WUHU216HW,2013-04-18 08:42:00,
2013-04-18 00:47:00,22.3,6.0,30.37,WNW,293,1.3,1.8,49,0.00,,,0.00,WUHU216HW,2013-04-18 08:47:00,
2013-04-18 00:52:00,22.3,6.0,30.37,NW,315,2.0,2.0,49,0.00,,,0.00,WUHU216HW,2013-04-18 08:52:00,
2013-04-18 00:57:00,22.1,5.9,30.37,NW,315,4.7,4.7,49,0.00,,,0.00,WUHU216HW,2013-04-18 08:57:00,
2013-04-18 01:02:00,22.0,5.7,30.37,NNW,347,1.1,4.7,49,0.00,,,0.00,WUHU216HW,2013-04-18 09:02:00,
2013-04-18 01:07:00,21.6,5.3,30.37,NW,311,1.1,1.6,49,0.00,,,0.00,WUHU216HW,2013-04-18 09:07:00,
2013-04-18 01:12:00,21.6,5.3,30.37,NNW,333,1.1,1.8,49,0.00,,,0.00,WUHU216HW,2013-04-18 09:12:00,
2013-04-18 01:17:00,21.2,5.4,30.37,NNW,332,0.8,1.8,50,0.00,,,0.00,WUHU216HW,2013-04-18 09:17:00,
2013-04-18 01:22:00,20.9,5.0,30.37,NW,315,0.4,1.1,50,0.00,,,0.00,WUHU216HW,2013-04-18 09:22:00,
2013-04-18 01:27:00,20.7,5.0,30.37,NNW,338,0.4,1.1,50,0.00,,,0.00,WUHU216HW,2013-04-18 09:27:00,
2013-04-18 01:32:00,20.7,5.3,30.37,WNW,293,0.9,1.1,51,0.00,,,0.00,WUHU216HW,2013-04-18 09:32:00,
2013-04-18 01:37:00,20.5,5.1,30.37,West,278,1.1,1.8,51,0.00,,,0.00,WUHU216HW,2013-04-18 09:37:00,
2013-04-18 01:42:00,20.2,4.9,30.37,WNW,293,0.7,1.8,51,0.00,,,0.00,WUHU216HW,2013-04-18 09:42:00,
2013-04-18 01:47:00,20.0,4.7,30.37,NW,315,0.9,0.9,51,0.00,,,0.00,WUHU216HW,2013-04-18 09:47:00,
2013-04-18 01:52:00,20.0,4.7,30.37,NW,315,0.4,1.1,51,0.00,,,0.00,WUHU216HW,2013-04-18 09:52:00,
2013-04-18 01:57:00,19.8,4.5,30.37,NNW,342,0.4,1.1,51,0.00,,,0.00,WUHU216HW,2013-04-18 09:57:00,
2013-04-18 02:02:00,19.8,4.9,30.37,WNW,285,0.3,1.1,52,0.00,,,0.00,WUHU216HW,2013-04-18 10:02:00,
2013-04-18 02:07:00,19.6,4.8,30.37,NW,315,0.4,1.6,52,0.00,,,0.00,WUHU216HW,2013-04-18 10:07:00,
2013-04-18 02:12:00,19.8,4.9,30.37,NNW,338,1.1,1.8,52,0.00,,,0.00,WUHU216HW,2013-04-18 10:12:00,
2013-04-18 02:17:00,19.8,4.9,30.37,NNW,338,1.6,1.8,52,0.00,,,0.00,WUHU216HW,2013-04-18 10:17:00,
2013-04-18 02:22:00,19.8,4.9,30.37,WSW,248,0.7,1.8,52,0.00,,,0.00,WUHU216HW,2013-04-18 10:22:00,
2013-04-18 02:27:00,19.6,4.8,30.37,West,270,0.4,1.8,52,0.00,,,0.00,WUHU216HW,2013-04-18 10:27:00,
2013-04-18 02:32:00,19.3,4.4,30.37,West,270,0.2,0.4,52,0.00,,,0.00,WUHU216HW,2013-04-18 10:32:00,
2013-04-18 02:37:00,19.1,3.9,30.37,WNW,293,0.2,0.7,51,0.00,,,0.00,WUHU216HW,2013-04-18 10:37:00,
2013-04-18 02:42:00,18.7,3.5,30.37,West,270,0.4,0.7,51,0.00,,,0.00,WUHU216HW,2013-04-18 10:42:00,
2013-04-18 02:47:00,18.5,3.3,30.37,SW,225,0.2,0.4,51,0.00,,,0.00,WUHU216HW,2013-04-18 10:47:00,
2013-04-18 02:52:00,18.2,3.4,30.37,West,270,0.2,0.2,52,0.00,,,0.00,WUHU216HW,2013-04-18 10:52:00,
2013-04-18 02:57:00,17.8,3.2,30.38,NNW,338,0.0,0.2,52,0.00,,,0.00,WUHU216HW,2013-04-18 10:57:00,
2013-04-18 03:02:00,17.3,3.0,30.38,ESE,113,0.0,0.0,53,0.00,,,0.00,WUHU216HW,2013-04-18 11:02:00,
2013-04-18 03:07:00,16.9,2.7,30.38,ESE,113,0.0,0.0,53,0.00,,,0.00,WUHU216HW,2013-04-18 11:07:00,
2013-04-18 03:12:00,16.6,2.3,30.38,SE,135,0.0,0.0,53,0.00,,,0.00,WUHU216HW,2013-04-18 11:12:00,
2013-04-18 03:17:00,16.2,2.4,30.38,SE,135,0.0,0.0,54,0.00,,,0.00,WUHU216HW,2013-04-18 11:17:00,
2013-04-18 03:22:00,15.8,2.8,30.38,SSE,158,0.4,0.4,56,0.00,,,0.00,WUHU216HW,2013-04-18 11:22:00,
2013-04-18 03:27:00,15.5,2.1,30.38,SW,225,0.0,0.4,55,0.00,,,0.00,WUHU216HW,2013-04-18 11:27:00,
2013-04-18 03:32:00,14.9,1.5,30.38,SW,225,0.0,0.0,55,0.00,,,0.00,WUHU216HW,2013-04-18 11:32:00,
2013-04-18 03:37:00,14.9,2.3,30.38,NE,45,0.0,0.0,57,0.00,,,0.00,WUHU216HW,2013-04-18 11:37:00,
2013-04-18 03:42:00,15.3,3.1,30.38,NNW,345,0.3,0.4,58,0.00,,,0.00,WUHU216HW,2013-04-18 11:42:00,
2013-04-18 03:47:00,15.1,3.3,30.38,NNW,338,0.0,0.4,59,0.00,,,0.00,WUHU216HW,2013-04-18 11:47:00,
2013-04-18 03:52:00,14.8,2.6,30.38,NNW,338,0.0,0.4,58,0.00,,,0.00,WUHU216HW,2013-04-18 11:52:00,
2013-04-18 03:57:00,14.4,1.9,30.38,NNW,338,0.0,0.0,57,0.00,,,0.00,WUHU216HW,2013-04-18 11:57:00,
2013-04-18 04:02:00,13.9,1.4,30.38,NNW,338,0.0,0.0,57,0.00,,,0.00,WUHU216HW,2013-04-18 12:02:00,
2013-04-18 04:07:00,13.3,1.2,30.38,ENE,68,0.0,0.0,58,0.00,,,0.00,WUHU216HW,2013-04-18 12:07:00,
2013-04-18 04:12:00,13.0,0.8,30.38,ENE,68,0.0,0.0,58,0.00,,,0.00,WUHU216HW,2013-04-18 12:12:00,
2013-04-18 04:17:00,12.6,0.6,30.38,ENE,68,0.0,0.0,58,0.00,,,0.00,WUHU216HW,2013-04-18 12:17:00,
2013-04-18 04:22:00,12.4,0.7,30.38,NNW,338,0.0,0.0,59,0.00,,,0.00,WUHU216HW,2013-04-18 12:22:00,
2013-04-18 04:27:00,12.1,0.0,30.38,NW,315,0.0,0.0,58,0.00,,,0.00,WUHU216HW,2013-04-18 12:27:00,
2013-04-18 04:32:00,11.9,0.5,30.38,SSE,158,0.0,0.0,60,0.00,,,0.00,WUHU216HW,2013-04-18 12:32:00,
2013-04-18 04:37:00,11.7,1.5,30.38,SSE,158,0.0,0.0,63,0.00,,,0.00,WUHU216HW,2013-04-18 12:37:00,
2013-04-18 04:42:00,11.5,0.9,30.38,SSE,158,0.0,0.0,62,0.00,,,0.00,WUHU216HW,2013-04-18 12:42:00,
2013-04-18 04:47:00,11.5,0.9,30.38,North,0,0.0,0.0,62,0.00,,,0.00,WUHU216HW,2013-04-18 12:47:00,
2013-04-18 04:52:00,11.5,1.3,30.38,NNW,338,0.0,0.0,63,0.00,,,0.00,WUHU216HW,2013-04-18 12:52:00,
2013-04-18 04:57:00,11.5,1.6,30.38,NNW,338,0.0,0.0,64,0.00,,,0.00,WUHU216HW,2013-04-18 12:57:00,
2013-04-18 05:02:00,11.2,1.3,30.38,North,0,0.2,0.2,64,0.00,,,0.00,WUHU216HW,2013-04-18 13:02:00,
2013-04-18 05:07:00,11.5,1.6,30.37,WNW,293,0.4,1.8,64,0.00,,,0.00,WUHU216HW,2013-04-18 13:07:00,
2013-04-18 05:12:00,12.1,2.1,30.38,NW,315,0.4,1.8,64,0.00,,,0.00,WUHU216HW,2013-04-18 13:12:00,
2013-04-18 05:17:00,11.9,1.9,30.37,WNW,300,0.3,0.4,64,0.00,,,0.00,WUHU216HW,2013-04-18 13:17:00,
2013-04-18 05:22:00,11.9,1.9,30.38,WSW,248,0.2,1.1,64,0.00,,,0.00,WUHU216HW,2013-04-18 13:22:00,
2013-04-18 05:27:00,12.1,2.1,30.37,NNW,338,0.2,1.1,64,0.00,,,0.00,WUHU216HW,2013-04-18 13:27:00,
2013-04-18 05:32:00,11.9,1.6,30.38,West,270,0.9,0.9,63,0.00,,,0.00,WUHU216HW,2013-04-18 13:32:00,
2013-04-18 05:37:00,11.9,1.6,30.37,NW,315,0.0,0.9,63,0.00,,,0.00,WUHU216HW,2013-04-18 13:37:00,
2013-04-18 05:42:00,11.5,0.9,30.38,NW,315,0.0,0.2,62,0.00,,,0.00,WUHU216HW,2013-04-18 13:42:00,
2013-04-18 05:47:00,11.2,0.9,30.37,NNW,338,0.0,0.2,63,0.00,,,0.00,WUHU216HW,2013-04-18 13:47:00,
2013-04-18 05:52:00,11.2,0.9,30.38,NNW,338,0.0,0.2,63,0.00,,,0.00,WUHU216HW,2013-04-18 13:52:00,
2013-04-18 05:57:00,10.6,0.7,30.38,ESE,113,0.0,0.0,64,0.00,,,0.00,WUHU216HW,2013-04-18 13:57:00,
2013-04-18 06:02:00,10.1,0.3,30.38,ESE,113,0.0,0.0,64,0.00,,,0.00,WUHU216HW,2013-04-18 14:02:00,
2013-04-18 06:07:00,9.9,0.1,30.38,ESE,113,0.0,0.0,64,0.00,,,0.00,WUHU216HW,2013-04-18 14:07:00,
2013-04-18 06:12:00,9.9,0.1,30.38,ESE,113,0.0,0.0,64,0.00,,,0.00,WUHU216HW,2013-04-18 14:12:00,
2013-04-18 06:17:00,9.7,0.2,30.38,ESE,113,0.0,0.0,65,0.00,,,0.00,WUHU216HW,2013-04-18 14:17:00,
2013-04-18 06:22:00,9.7,-0.1,30.38,North,0,0.0,0.0,64,0.00,,,0.00,WUHU216HW,2013-04-18 14:22:00,
2013-04-18 06:27:00,9.7,0.5,30.38,North,0,0.0,0.0,66,0.00,,,0.00,WUHU216HW,2013-04-18 14:27:00,
2013-04-18 06:32:00,9.9,0.7,30.38,NNW,338,0.0,0.0,66,0.00,,,0.00,WUHU216HW,2013-04-18 14:32:00,
2013-04-18 06:37:00,9.7,0.2,30.38,North,0,0.0,0.0,65,0.00,,,0.00,WUHU216HW,2013-04-18 14:37:00,
2013-04-18 06:42:00,9.4,-0.1,30.38,NNW,338,0.0,0.0,65,0.00,,,0.00,WUHU216HW,2013-04-18 14:42:00,
2013-04-18 06:47:00,9.4,0.2,30.38,NNW,338,0.0,0.2,66,0.00,,,0.00,WUHU216HW,2013-04-18 14:47:00,
2013-04-18 06:52:00,9.4,0.2,30.38,NNW,338,0.0,0.2,66,0.00,,,0.00,WUHU216HW,2013-04-18 14:52:00,
2013-04-18 07:00:00,9.9,1.4,30.39,NW,315,0.2,0.2,68,0.00,,,0.00,WUHU216HW,2013-04-18 15:00:00,
2013-04-18 07:05:00,9.7,1.5,30.39,NW,315,0.2,0.4,69,0.00,,,0.00,WUHU216HW,2013-04-18 15:05:00,
2013-04-18 07:10:00,10.4,1.9,30.39,NW,315,0.7,0.7,68,0.00,,,0.00,WUHU216HW,2013-04-18 15:10:00,
2013-04-18 07:15:00,11.0,2.4,30.38,NW,315,0.4,0.7,68,0.00,,,0.00,WUHU216HW,2013-04-18 15:15:00,
2013-04-18 07:20:00,11.9,2.6,30.38,NNW,338,0.0,0.4,66,0.00,,,0.00,WUHU216HW,2013-04-18 15:20:00,
2013-04-18 07:25:00,12.6,3.0,30.38,NW,315,0.4,0.4,65,0.00,,,0.00,WUHU216HW,2013-04-18 15:25:00,
2013-04-18 07:30:00,13.3,3.3,30.39,NW,315,0.0,0.4,64,0.00,,,0.00,WUHU216HW,2013-04-18 15:30:00,
2013-04-18 07:35:00,13.7,3.3,30.38,NW,315,0.0,0.2,63,0.00,,,0.00,WUHU216HW,2013-04-18 15:35:00,
2013-04-18 07:40:00,14.0,3.4,30.39,NW,315,0.4,0.4,62,0.00,,,0.00,WUHU216HW,2013-04-18 15:40:00,
2013-04-18 07:45:00,14.8,3.7,30.39,NNW,338,0.2,0.4,61,0.00,,,0.00,WUHU216HW,2013-04-18 15:45:00,
2013-04-18 07:50:00,14.9,3.5,30.38,ENE,68,0.0,0.4,60,0.00,,,0.00,WUHU216HW,2013-04-18 15:50:00,
2013-04-18 07:55:00,15.3,4.1,30.38,NE,45,0.4,0.7,61,0.00,,,0.00,WUHU216HW,2013-04-18 15:55:00,
2013-04-18 08:00:00,15.7,4.1,30.38,NW,315,0.0,0.7,60,0.00,,,0.00,WUHU216HW,2013-04-18 16:00:00,
2013-04-18 08:05:00,16.0,4.2,30.38,East,90,0.0,0.7,59,0.00,,,0.00,WUHU216HW,2013-04-18 16:05:00,
2013-04-18 08:10:00,16.4,4.1,30.38,North,0,0.4,0.9,58,0.00,,,0.00,WUHU216HW,2013-04-18 16:10:00,
2013-04-18 08:15:00,16.9,4.2,30.38,NW,315,0.9,0.9,57,0.00,,,0.00,WUHU216HW,2013-04-18 16:15:00,
2013-04-18 08:20:00,17.6,4.1,30.39,NNW,338,0.2,0.9,55,0.00,,,0.00,WUHU216HW,2013-04-18 16:20:00,
2013-04-18 08:25:00,18.0,4.5,30.39,NW,315,0.4,0.4,55,0.00,,,0.00,WUHU216HW,2013-04-18 16:25:00,
2013-04-18 08:30:00,18.4,4.4,30.39,NE,45,1.1,1.1,54,0.00,,,0.00,WUHU216HW,2013-04-18 16:30:00,
2013-04-18 08:35:00,18.7,4.3,30.39,NNW,338,0.9,1.1,53,0.00,,,0.00,WUHU216HW,2013-04-18 16:35:00,
2013-04-18 08:40:00,18.7,4.3,30.39,NNW,338,0.9,1.1,53,0.00,,,0.00,WUHU216HW,2013-04-18 16:40:00,
2013-04-18 09:00:00,20.5,4.8,30.39,WNW,293,0.7,0.7,50,0.00,,,0.00,WUHU216HW,2013-04-18 17:00:00,
2013-04-18 09:05:00,20.9,4.6,30.39,ENE,68,2.5,2.5,49,0.00,,,0.00,WUHU216HW,2013-04-18 17:05:00,
2013-04-18 09:10:00,21.2,5.4,30.39,NW,315,0.8,2.5,50,0.00,,,0.00,WUHU216HW,2013-04-18 17:10:00,
2013-04-18 09:15:00,22.5,5.7,30.39,East,90,0.4,1.1,48,0.00,,,0.00,WUHU216HW,2013-04-18 17:15:00,
2013-04-18 09:20:00,23.9,6.6,30.39,North,0,0.7,1.1,47,0.00,,,0.00,WUHU216HW,2013-04-18 17:20:00,
2013-04-18 09:25:00,24.3,6.0,30.39,WNW,293,1.8,2.0,45,0.00,,,0.00,WUHU216HW,2013-04-18 17:25:00,
2013-04-18 09:30:00,24.1,5.2,30.39,West,275,1.5,2.0,44,0.00,,,0.00,WUHU216HW,2013-04-18 17:30:00,
2013-04-18 09:35:00,23.8,5.0,30.39,NW,315,0.2,1.8,44,0.00,,,0.00,WUHU216HW,2013-04-18 17:35:00,
2013-04-18 09:40:00,24.7,6.8,30.39,NW,324,0.6,1.3,46,0.00,,,0.00,WUHU216HW,2013-04-18 17:40:00,
2013-04-18 09:45:00,26.3,6.8,30.39,SW,225,1.1,1.8,43,0.00,,,0.00,WUHU216HW,2013-04-18 17:45:00,
2013-04-18 09:50:00,26.3,6.2,30.39,NW,315,1.8,3.4,42,0.00,,,0.00,WUHU216HW,2013-04-18 17:50:00,
2013-04-18 09:55:00,25.6,5.6,30.39,WNW,293,2.0,3.4,42,0.00,,,0.00,WUHU216HW,2013-04-18 17:55:00,
2013-04-18 10:00:00,24.7,4.8,30.39,West,270,1.6,2.9,42,0.00,,,0.00,WUHU216HW,2013-04-18 18:00:00,
2013-04-18 10:05:00,24.8,6.0,30.39,ENE,68,0.7,2.9,44,0.00,,,0.00,WUHU216HW,2013-04-18 18:05:00,
2013-04-18 10:10:00,27.7,6.6,30.39,ESE,113,1.6,1.8,40,0.00,,,0.00,WUHU216HW,2013-04-18 18:10:00,
2013-04-18 10:15:00,28.4,6.6,30.39,ESE,121,1.2,1.6,39,0.00,,,0.00,WUHU216HW,2013-04-18 18:15:00,
2013-04-18 10:20:00,29.7,8.8,30.39,NNE,14,0.4,1.6,41,0.00,,,0.00,WUHU216HW,2013-04-18 18:20:00,
2013-04-18 10:25:00,30.8,7.4,30.39,ESE,113,1.1,2.7,37,0.00,,,0.00,WUHU216HW,2013-04-18 18:25:00,
2013-04-18 10:30:00,29.9,6.6,30.39,ENE,68,1.6,2.7,37,0.00,,,0.00,WUHU216HW,2013-04-18 18:30:00,
2013-04-18 10:35:00,30.6,7.9,30.39,ENE,68,1.1,1.6,38,0.00,,,0.00,WUHU216HW,2013-04-18 18:35:00,
2013-04-18 10:40:00,31.7,8.2,30.39,ENE,68,1.6,1.6,37,0.00,,,0.00,WUHU216HW,2013-04-18 18:40:00,
2013-04-18 10:41:00,32.0,7.9,30.39,ESE,113,1.3,1.3,36,0.00,,,0.00,WUHU216HW,2013-04-18 18:41:00,
2013-04-18 10:45:00,32.0,7.9,30.39,ESE,113,1.3,1.6,36,0.00,,,0.00,WUHU216HW,2013-04-18 18:45:00,
2013-04-18 10:50:00,32.0,7.9,30.39,ESE,113,1.3,1.3,36,0.00,,,0.00,WUHU216HW,2013-04-18 18:50:00,
2013-04-18 11:00:00,32.8,6.7,30.39,ESE,113,1.3,1.3,33,0.00,,,0.00,WUHU216HW,2013-04-18 19:00:00,
2013-04-18 11:05:00,33.1,7.0,30.39,ESE,113,1.1,1.3,33,0.00,,,0.00,WUHU216HW,2013-04-18 19:05:00,
2013-04-18 11:10:00,34.6,7.7,30.39,ENE,68,1.3,1.3,32,0.00,,,0.00,WUHU216HW,2013-04-18 19:10:00,
2013-04-18 11:15:00,33.7,7.5,30.39,East,88,0.6,1.6,33,0.00,,,0.00,WUHU216HW,2013-04-18 19:15:00,
2013-04-18 11:20:00,33.8,7.0,30.39,ESE,113,1.8,1.8,32,0.00,,,0.00,WUHU216HW,2013-04-18 19:20:00,
2013-04-18 11:25:00,34.4,6.9,30.38,North,0,1.8,1.8,31,0.00,,,0.00,WUHU216HW,2013-04-18 19:25:00,
2013-04-18 11:30:00,34.6,6.3,30.38,ESE,113,2.5,3.1,30,0.00,,,0.00,WUHU216HW,2013-04-18 19:30:00,
2013-04-18 11:35:00,34.2,7.3,30.38,SE,135,1.1,3.1,32,0.00,,,0.00,WUHU216HW,2013-04-18 19:35:00,
2013-04-18 11:40:00,34.9,7.9,30.38,East,89,0.8,2.0,32,0.00,,,0.00,WUHU216HW,2013-04-18 19:40:00,
2013-04-18 11:45:00,35.5,7.8,30.38,SE,137,0.9,2.0,31,0.00,,,0.00,WUHU216HW,2013-04-18 19:45:00,
2013-04-18 11:50:00,35.8,8.6,30.38,ESE,113,0.8,1.6,32,0.00,,,0.00,WUHU216HW,2013-04-18 19:50:00,
2013-04-18 11:55:00,35.6,8.5,30.38,SE,135,0.4,2.0,32,0.00,,,0.00,WUHU216HW,2013-04-18 19:55:00,
2013-04-18 12:00:00,35.1,7.4,30.38,ESE,121,1.6,2.9,31,0.00,,,0.00,WUHU216HW,2013-04-18 20:00:00,
2013-04-18 12:05:00,35.1,8.0,30.38,SSE,158,1.3,3.8,32,0.00,,,0.00,WUHU216HW,2013-04-18 20:05:00,
2013-04-18 12:10:00,34.6,6.3,30.38,SE,135,0.4,3.8,30,0.00,,,0.00,WUHU216HW,2013-04-18 20:10:00,
2013-04-18 12:15:00,34.7,6.5,30.38,ESE,113,3.4,3.4,30,0.00,,,0.00,WUHU216HW,2013-04-18 20:15:00,
2013-04-18 12:20:00,33.5,6.0,30.37,SE,126,1.5,3.4,31,0.00,,,0.00,WUHU216HW,2013-04-18 20:20:00,
2013-04-18 12:25:00,33.5,6.7,30.37,NE,45,1.8,2.0,32,0.00,,,0.00,WUHU216HW,2013-04-18 20:25:00,
2013-04-18 12:30:00,32.0,6.0,30.37,West,270,1.6,2.0,33,0.00,,,0.00,WUHU216HW,2013-04-18 20:30:00,
2013-04-18 12:35:00,31.5,6.9,30.37,West,279,0.7,3.1,35,0.00,,,0.00,WUHU216HW,2013-04-18 20:35:00,
2013-04-18 12:40:00,31.3,6.7,30.37,NE,45,1.1,3.1,35,0.00,,,0.00,WUHU216HW,2013-04-18 20:40:00,
2013-04-18 12:45:00,31.3,6.7,30.37,NE,45,1.1,1.1,35,0.00,,,0.00,WUHU216HW,2013-04-18 20:45:00,
2013-04-18 13:00:00,30.6,7.3,30.37,WNW,293,2.0,2.0,37,0.00,,,0.00,WUHU216HW,2013-04-18 21:00:00,
2013-04-18 13:05:00,30.6,6.7,30.37,NW,315,3.1,3.1,36,0.00,,,0.00,WUHU216HW,2013-04-18 21:05:00,
2013-04-18 13:10:00,30.8,6.8,30.37,WSW,248,0.7,3.1,36,0.00,,,0.00,WUHU216HW,2013-04-18 21:10:00,
2013-04-18 13:15:00,31.3,6.7,30.37,NNW,344,2.3,3.4,35,0.00,,,0.00,WUHU216HW,2013-04-18 21:15:00,
2013-04-18 13:20:00,32.8,7.9,30.37,West,275,2.2,3.4,35,0.00,,,0.00,WUHU216HW,2013-04-18 21:20:00,
2013-04-18 13:25:00,33.8,8.9,30.36,SW,228,1.5,2.7,35,0.00,,,0.00,WUHU216HW,2013-04-18 21:25:00,
2013-04-18 13:30:00,34.7,7.7,30.36,NE,45,0.7,2.7,32,0.00,,,0.00,WUHU216HW,2013-04-18 21:30:00,
2013-04-18 13:35:00,34.0,7.8,30.36,NNW,338,0.7,1.6,33,0.00,,,0.00,WUHU216HW,2013-04-18 21:35:00,
2013-04-18 13:40:00,33.1,7.7,30.36,North,0,1.1,2.2,34,0.00,,,0.00,WUHU216HW,2013-04-18 21:40:00,
2013-04-18 13:45:00,32.8,7.3,30.36,North,0,1.8,2.2,34,0.00,,,0.00,WUHU216HW,2013-04-18 21:45:00,
2013-04-18 13:50:00,32.0,7.3,30.36,SSE,160,1.4,2.2,35,0.00,,,0.00,WUHU216HW,2013-04-18 21:50:00,
2013-04-18 13:55:00,33.3,8.5,30.36,NW,315,3.4,3.4,35,0.00,,,0.00,WUHU216HW,2013-04-18 21:55:00,
2013-04-18 14:00:00,33.8,7.7,30.36,NNW,339,2.5,4.3,33,0.00,,,0.00,WUHU216HW,2013-04-18 22:00:00,
2013-04-18 14:05:00,33.8,7.7,30.36,NE,56,1.0,4.3,33,0.00,,,0.00,WUHU216HW,2013-04-18 22:05:00,
2013-04-18 14:10:00,33.5,7.3,30.36,NNW,338,2.9,2.9,33,0.00,,,0.00,WUHU216HW,2013-04-18 22:10:00,
2013-04-18 14:15:00,32.8,7.3,30.36,North,1,1.3,2.9,34,0.00,,,0.00,WUHU216HW,2013-04-18 22:15:00,
2013-04-18 14:20:00,33.1,8.3,30.36,ESE,113,1.8,2.5,35,0.00,,,0.00,WUHU216HW,2013-04-18 22:20:00,
2013-04-18 14:25:00,33.8,7.0,30.36,WSW,248,3.4,7.2,32,0.00,,,0.00,WUHU216HW,2013-04-18 22:25:00,
2013-04-18 14:30:00,34.6,8.3,30.36,WNW,302,1.3,7.2,33,0.00,,,0.00,WUHU216HW,2013-04-18 22:30:00,
2013-04-18 14:35:00,35.5,9.0,30.36,NNW,331,2.1,3.4,33,0.00,,,0.00,WUHU216HW,2013-04-18 22:35:00,
2013-04-18 14:40:00,34.9,8.6,30.36,NE,45,1.8,3.4,33,0.00,,,0.00,WUHU216HW,2013-04-18 22:40:00,
2013-04-18 14:45:00,33.8,7.7,30.36,NW,312,1.8,2.9,33,0.00,,,0.00,WUHU216HW,2013-04-18 22:45:00,
2013-04-18 14:50:00,33.5,8.6,30.36,NW,315,2.9,2.9,35,0.00,,,0.00,WUHU216HW,2013-04-18 22:50:00,
2013-04-18 14:55:00,32.9,8.1,30.36,NE,45,2.9,4.0,35,0.00,,,0.00,WUHU216HW,2013-04-18 22:55:00,
2013-04-18 15:00:00,32.6,7.7,30.36,NW,317,2.3,4.7,35,0.00,,,0.00,WUHU216HW,2013-04-18 23:00:00,
2013-04-18 15:05:00,32.4,7.7,30.36,NE,43,1.5,4.7,35,0.00,,,0.00,WUHU216HW,2013-04-18 23:05:00,
2013-04-18 15:10:00,32.4,7.7,30.36,NW,315,4.0,4.0,35,0.00,,,0.00,WUHU216HW,2013-04-18 23:10:00,
2013-04-18 15:15:00,32.0,7.3,30.36,NW,315,5.1,6.3,35,0.00,,,0.00,WUHU216HW,2013-04-18 23:15:00,
2013-04-18 15:20:00,32.0,7.9,30.36,NW,315,2.7,6.3,36,0.00,,,0.00,WUHU216HW,2013-04-18 23:20:00,
2013-04-18 15:25:00,32.4,8.3,30.36,South,180,0.8,6.3,36,0.00,,,0.00,WUHU216HW,2013-04-18 23:25:00,
2013-04-18 15:30:00,32.2,8.1,30.36,WNW,289,4.1,4.7,36,0.00,,,0.00,WUHU216HW,2013-04-18 23:30:00,
2013-04-18 15:35:00,31.9,7.1,30.36,NW,315,6.5,6.5,35,0.00,,,0.00,WUHU216HW,2013-04-18 23:35:00,
2013-04-18 15:40:00,31.7,7.6,30.36,NW,315,2.9,6.5,36,0.00,,,0.00,WUHU216HW,2013-04-18 23:40:00,
2013-04-18 15:45:00,32.0,8.6,30.36,NW,315,5.8,6.5,37,0.00,,,0.00,WUHU216HW,2013-04-18 23:45:00,
2013-04-18 15:50:00,32.0,7.9,30.36,NW,307,3.0,5.8,36,0.00,,,0.00,WUHU216HW,2013-04-18 23:50:00,
2013-04-18 15:55:00,31.9,8.4,30.36,North,0,3.8,4.0,37,0.00,,,0.00,WUHU216HW,2013-04-18 23:55:00,
2013-04-18 16:00:00,32.0,8.6,30.36,NNW,338,4.3,4.9,37,0.00,,,0.00,WUHU216HW,2013-04-19 00:00:00,
2013-04-18 16:05:00,32.0,8.6,30.36,WNW,293,4.0,4.9,37,0.00,,,0.00,WUHU216HW,2013-04-19 00:05:00,
2013-04-18 16:10:00,31.9,8.4,30.36,NNW,338,4.0,4.7,37,0.00,,,0.00,WUHU216HW,2013-04-19 00:10:00,
2013-04-18 16:15:00,31.7,8.2,30.36,NNW,338,3.4,7.6,37,0.00,,,0.00,WUHU216HW,2013-04-19 00:15:00,
2013-04-18 16:20:00,31.9,8.4,30.36,NW,320,4.6,7.6,37,0.00,,,0.00,WUHU216HW,2013-04-19 00:20:00,
2013-04-18 16:25:00,31.9,8.4,30.36,NW,315,4.5,6.9,37,0.00,,,0.00,WUHU216HW,2013-04-19 00:25:00,
2013-04-18 16:30:00,32.0,8.6,30.36,NNW,338,2.0,5.8,37,0.00,,,0.00,WUHU216HW,2013-04-19 00:30:00,
2013-04-18 16:35:00,32.0,8.6,30.36,WNW,298,2.1,5.8,37,0.00,,,0.00,WUHU216HW,2013-04-19 00:35:00,
2013-04-18 16:40:00,32.0,8.6,30.36,NNE,23,3.8,5.4,37,0.00,,,0.00,WUHU216HW,2013-04-19 00:40:00,
2013-04-18 16:44:00,31.7,8.2,30.36,NE,43,1.4,6.0,37,0.00,,,0.00,WUHU216HW,2013-04-19 00:44:00,
2013-04-18 16:50:00,31.7,8.2,30.36,NW,325,3.3,6.0,37,0.00,,,0.00,WUHU216HW,2013-04-19 00:50:00,
2013-04-18 16:54:00,31.9,8.4,30.36,NW,320,4.6,6.0,37,0.00,,,0.00,WUHU216HW,2013-04-19 00:54:00,
2013-04-18 16:59:00,31.9,8.4,30.36,NNW,338,5.1,6.0,37,0.00,,,0.00,WUHU216HW,2013-04-19 00:59:00,
2013-04-18 17:04:00,31.5,8.1,30.36,NW,315,0.9,8.3,37,0.00,,,0.00,WUHU216HW,2013-04-19 01:04:00,
2013-04-18 17:09:00,31.7,8.2,30.36,NNW,338,2.5,8.3,37,0.00,,,0.00,WUHU216HW,2013-04-19 01:09:00,
2013-04-18 17:14:00,31.5,8.1,30.36,WNW,291,4.5,4.7,37,0.00,,,0.00,WUHU216HW,2013-04-19 01:14:00,
2013-04-18 17:19:00,31.3,8.6,30.35,NW,315,3.8,4.9,38,0.00,,,0.00,WUHU216HW,2013-04-19 01:19:00,
2013-04-18 17:24:00,31.5,8.1,30.35,West,270,4.3,4.9,37,0.00,,,0.00,WUHU216HW,2013-04-19 01:24:00,
2013-04-18 17:29:00,31.7,8.2,30.36,WNW,293,4.3,4.7,37,0.00,,,0.00,WUHU216HW,2013-04-19 01:29:00,
2013-04-18 17:34:00,31.7,8.8,30.36,NNW,338,2.5,5.8,38,0.00,,,0.00,WUHU216HW,2013-04-19 01:34:00,
2013-04-18 17:39:00,31.9,8.4,30.36,NNW,347,1.9,5.8,37,0.00,,,0.00,WUHU216HW,2013-04-19 01:39:00,
2013-04-18 17:44:00,32.0,9.2,30.36,WSW,248,1.5,5.1,38,0.00,,,0.00,WUHU216HW,2013-04-19 01:44:00,
2013-04-18 17:49:00,31.7,8.2,30.36,NW,304,3.5,5.4,37,0.00,,,0.00,WUHU216HW,2013-04-19 01:49:00,
2013-04-18 17:54:00,31.7,8.2,30.36,West,270,2.6,5.4,37,0.00,,,0.00,WUHU216HW,2013-04-19 01:54:00,
2013-04-18 17:59:00,31.5,8.1,30.36,NNW,338,3.6,5.4,37,0.00,,,0.00,WUHU216HW,2013-04-19 01:59:00,
2013-04-18 18:04:00,31.3,7.9,30.36,NNW,338,2.9,5.4,37,0.00,,,0.00,WUHU216HW,2013-04-19 02:04:00,
2013-04-18 18:09:00,31.3,8.6,30.36,East,99,2.3,4.7,38,0.00,,,0.00,WUHU216HW,2013-04-19 02:09:00,
2013-04-18 18:14:00,31.1,7.7,30.36,ESE,113,3.4,3.8,37,0.00,,,0.00,WUHU216HW,2013-04-19 02:14:00,
2013-04-18 18:19:00,31.3,8.6,30.36,NNW,346,1.5,3.4,38,0.00,,,0.00,WUHU216HW,2013-04-19 02:19:00,
2013-04-18 18:24:00,31.5,8.7,30.36,NNW,330,2.3,5.6,38,0.00,,,0.00,WUHU216HW,2013-04-19 02:24:00,
2013-04-18 18:29:00,31.1,8.4,30.36,NNW,330,2.5,5.6,38,0.00,,,0.00,WUHU216HW,2013-04-19 02:29:00,
2013-04-18 18:34:00,30.6,7.9,30.36,NNW,333,5.3,8.5,38,0.00,,,0.00,WUHU216HW,2013-04-19 02:34:00,
2013-04-18 18:39:00,30.1,8.0,30.36,West,270,11.0,11.0,39,0.00,,,0.00,WUHU216HW,2013-04-19 02:39:00,
2013-04-18 18:44:00,29.7,7.8,30.37,North,0,2.9,11.0,39,0.00,,,0.00,WUHU216HW,2013-04-19 02:44:00,
2013-04-18 18:49:00,29.5,8.2,30.37,NW,315,5.9,7.4,40,0.00,,,0.00,WUHU216HW,2013-04-19 02:49:00,
2013-04-18 18:54:00,29.3,8.0,30.37,NW,315,4.3,7.4,40,0.00,,,0.00,WUHU216HW,2013-04-19 02:54:00,
2013-04-18 18:59:00,29.2,8.4,30.37,NE,45,3.6,4.3,41,0.00,,,0.00,WUHU216HW,2013-04-19 02:59:00,
2013-04-18 19:04:00,29.2,8.4,30.37,East,90,1.8,3.6,41,0.00,,,0.00,WUHU216HW,2013-04-19 03:04:00,
2013-04-18 19:09:00,28.8,8.6,30.37,NE,50,1.7,4.0,42,0.00,,,0.00,WUHU216HW,2013-04-19 03:09:00,
2013-04-18 19:14:00,28.6,7.8,30.37,North,355,3.0,4.7,41,0.00,,,0.00,WUHU216HW,2013-04-19 03:14:00,
2013-04-18 19:19:00,28.4,7.2,30.37,NW,321,0.8,4.7,40,0.00,,,0.00,WUHU216HW,2013-04-19 03:19:00,
2013-04-18 19:24:00,28.3,7.6,30.38,West,270,1.6,2.5,41,0.00,,,0.00,WUHU216HW,2013-04-19 03:24:00,
2013-04-18 19:29:00,27.9,7.8,30.38,ESE,113,3.6,9.8,42,0.00,,,0.00,WUHU216HW,2013-04-19 03:29:00,
2013-04-18 19:34:00,27.4,7.2,30.38,NE,45,2.3,9.8,42,0.00,,,0.00,WUHU216HW,2013-04-19 03:34:00,
2013-04-18 19:39:00,27.4,7.8,30.38,ESE,113,3.4,3.6,43,0.00,,,0.00,WUHU216HW,2013-04-19 03:39:00,
2013-04-18 19:44:00,27.0,7.4,30.38,SE,135,0.7,3.6,43,0.00,,,0.00,WUHU216HW,2013-04-19 03:44:00,
2013-04-18 19:49:00,27.0,7.4,30.38,East,87,2.8,3.4,43,0.00,,,0.00,WUHU216HW,2013-04-19 03:49:00,
2013-04-18 19:54:00,26.6,7.0,30.38,ENE,66,0.6,3.1,43,0.00,,,0.00,WUHU216HW,2013-04-19 03:54:00,
2013-04-18 19:59:00,26.5,6.8,30.39,NNE,23,5.8,5.8,43,0.00,,,0.00,WUHU216HW,2013-04-19 03:59:00,
2013-04-18 20:01:00,26.5,6.8,30.39,North,8,3.8,5.8,43,0.00,,,0.00,WUHU216HW,2013-04-19 04:01:00,
2013-04-18 20:06:00,26.3,6.8,30.39,NNW,338,4.3,5.8,43,0.00,,,0.00,WUHU216HW,2013-04-19 04:06:00,
2013-04-18 20:11:00,26.1,7.0,30.39,NNW,338,2.2,4.3,44,0.00,,,0.00,WUHU216HW,2013-04-19 04:11:00,
2013-04-18 20:16:00,25.7,6.8,30.39,East,90,2.8,6.7,44,0.00,,,0.00,WUHU216HW,2013-04-19 04:16:00,
2013-04-18 20:21:00,25.6,7.6,30.39,SW,225,1.1,6.7,46,0.00,,,0.00,WUHU216HW,2013-04-19 04:21:00,
2013-04-18 20:26:00,25.6,7.0,30.39,North,6,0.6,2.7,45,0.00,,,0.00,WUHU216HW,2013-04-19 04:26:00,
2013-04-18 20:31:00,25.4,6.8,30.39,North,9,1.5,3.8,45,0.00,,,0.00,WUHU216HW,2013-04-19 04:31:00,
2013-04-18 20:36:00,25.2,6.8,30.39,ENE,73,3.5,5.4,45,0.00,,,0.00,WUHU216HW,2013-04-19 04:36:00,
2013-04-18 20:41:00,25.0,6.6,30.39,NE,53,3.6,5.4,45,0.00,,,0.00,WUHU216HW,2013-04-19 04:41:00,
2013-04-18 20:46:00,25.0,7.0,30.39,SE,135,2.2,4.7,46,0.00,,,0.00,WUHU216HW,2013-04-19 04:46:00,
2013-04-18 20:51:00,24.8,6.4,30.39,ESE,113,1.6,2.9,45,0.00,,,0.00,WUHU216HW,2013-04-19 04:51:00,
2013-04-18 20:56:00,24.8,6.4,30.39,NE,45,1.1,2.5,45,0.00,,,0.00,WUHU216HW,2013-04-19 04:56:00,
2013-04-18 21:01:00,24.7,6.8,30.39,NE,47,3.0,3.4,46,0.00,,,0.00,WUHU216HW,2013-04-19 05:01:00,
2013-04-18 21:06:00,24.5,6.6,30.40,NW,315,1.8,3.4,46,0.00,,,0.00,WUHU216HW,2013-04-19 05:06:00,
2013-04-18 21:11:00,24.3,6.0,30.40,NW,315,1.6,1.8,45,0.00,,,0.00,WUHU216HW,2013-04-19 05:11:00,
2013-04-18 21:16:00,24.3,6.0,30.40,NNE,15,1.5,2.0,45,0.00,,,0.00,WUHU216HW,2013-04-19 05:16:00,
2013-04-18 21:21:00,24.1,5.8,30.40,North,0,2.5,2.5,45,0.00,,,0.00,WUHU216HW,2013-04-19 05:21:00,
2013-04-18 21:26:00,23.8,5.4,30.39,ENE,68,0.9,2.5,45,0.00,,,0.00,WUHU216HW,2013-04-19 05:26:00,
2013-04-18 21:31:00,23.8,6.0,30.40,NNE,29,2.0,3.8,46,0.00,,,0.00,WUHU216HW,2013-04-19 05:31:00,
2013-04-18 21:36:00,23.6,5.8,30.40,SE,135,0.4,3.8,46,0.00,,,0.00,WUHU216HW,2013-04-19 05:36:00,
2013-04-18 21:41:00,23.4,5.6,30.40,North,8,1.0,3.1,46,0.00,,,0.00,WUHU216HW,2013-04-19 05:41:00,
2013-04-18 21:46:00,23.2,5.4,30.40,North,0,1.1,2.5,46,0.00,,,0.00,WUHU216HW,2013-04-19 05:46:00,
2013-04-18 21:51:00,23.0,5.2,30.41,NNE,23,0.2,2.5,46,0.00,,,0.00,WUHU216HW,2013-04-19 05:51:00,
2013-04-18 21:56:00,22.7,5.4,30.41,NW,315,0.4,1.1,47,0.00,,,0.00,WUHU216HW,2013-04-19 05:56:00,
2013-04-18 22:01:00,22.7,5.4,30.40,NNE,23,2.5,2.5,47,0.00,,,0.00,WUHU216HW,2013-04-19 06:01:00,
2013-04-18 22:06:00,22.3,4.6,30.41,NNE,23,0.7,2.5,46,0.00,,,0.00,WUHU216HW,2013-04-19 06:06:00,
2013-04-18 22:11:00,22.0,5.1,30.41,NNW,338,0.4,0.7,48,0.00,,,0.00,WUHU216HW,2013-04-19 06:11:00,
2013-04-18 22:16:00,21.8,5.0,30.40,SW,225,0.4,1.1,48,0.00,,,0.00,WUHU216HW,2013-04-19 06:16:00,
2013-04-18 22:21:00,21.8,5.0,30.41,North,0,0.7,1.1,48,0.00,,,0.00,WUHU216HW,2013-04-19 06:21:00,
2013-04-18 22:26:00,21.8,5.0,30.41,NW,315,0.4,0.9,48,0.00,,,0.00,WUHU216HW,2013-04-19 06:26:00,
2013-04-18 22:31:00,21.6,5.3,30.41,North,0,0.4,1.1,49,0.00,,,0.00,WUHU216HW,2013-04-19 06:31:00,
2013-04-18 22:36:00,21.4,4.7,30.41,SW,225,0.4,1.1,48,0.00,,,0.00,WUHU216HW,2013-04-19 06:36:00,
2013-04-18 22:41:00,21.2,4.5,30.41,WNW,293,0.0,0.4,48,0.00,,,0.00,WUHU216HW,2013-04-19 06:41:00,
2013-04-18 22:46:00,20.9,4.1,30.41,SW,225,0.4,0.4,48,0.00,,,0.00,WUHU216HW,2013-04-19 06:46:00,
2013-04-18 22:51:00,20.7,4.4,30.41,ESE,113,0.0,0.4,49,0.00,,,0.00,WUHU216HW,2013-04-19 06:51:00,
2013-04-18 22:56:00,20.5,4.3,30.42,SSE,158,0.0,0.0,49,0.00,,,0.00,WUHU216HW,2013-04-19 06:56:00,
2013-04-18 23:01:00,20.3,4.2,30.42,SSE,158,0.0,0.0,49,0.00,,,0.00,WUHU216HW,2013-04-19 07:01:00,
2013-04-18 23:06:00,19.8,3.6,30.42,SSW,203,0.0,0.0,49,0.00,,,0.00,WUHU216HW,2013-04-19 07:06:00,
2013-04-18 23:11:00,19.6,3.5,30.42,WSW,248,0.2,0.2,49,0.00,,,0.00,WUHU216HW,2013-04-19 07:11:00,
2013-04-18 23:16:00,19.4,3.8,30.42,SW,225,0.0,0.2,50,0.00,,,0.00,WUHU216HW,2013-04-19 07:16:00,
2013-04-18 23:21:00,19.1,3.4,30.42,West,270,0.0,0.0,50,0.00,,,0.00,WUHU216HW,2013-04-19 07:21:00,
2013-04-18 23:26:00,18.9,3.3,30.42,West,270,0.0,0.0,50,0.00,,,0.00,WUHU216HW,2013-04-19 07:26:00,
2013-04-18 23:31:00,18.9,3.3,30.42,West,270,0.0,0.0,50,0.00,,,0.00,WUHU216HW,2013-04-19 07:31:00,
2013-04-18 23:53:00,18.0,2.9,30.42,NW,315,0.0,0.0,51,0.00,,,0.00,WUHU216HW,2013-04-19 07:53:00,
2013-04-18 23:58:00,18.0,2.9,30.42,NW,315,0.0,0.0,51,0.00,,,0.00,WUHU216HW,2013-04-19 07:58:00,